Time;durP1;ratioP1;P1;durP2;ratioP2;P2;SDS_P1;SDS_P2;PMS_P1;PMS_P2;Temp;Humidity;BMP_temperature;BMP_pressure;BME280_temperature;BME280_humidity;BME280_pressure;Samples;Min_cycle;Max_cycle;Signal;HPM_P1;HPM_P2
2022/09/26 00:01:22;;;;;;;2.83;1.83;;;14.50;93.40;;;;;;4981933;28;20038;-80
2022/09/26 00:03:54;;;;;;;1.88;1.63;;;14.50;93.50;;;;;;4976506;28;20101;-80
2022/09/26 00:06:22;;;;;;;3.20;2.03;;;14.50;93.40;;;;;;4978909;28;20039;-80
2022/09/26 00:08:49;;;;;;;2.53;2.15;;;14.50;93.30;;;;;;4977565;28;20034;-77
2022/09/26 00:11:18;;;;;;;3.15;1.92;;;14.50;93.40;;;;;;4981973;28;20030;-77
2022/09/26 00:13:45;;;;;;;2.38;1.83;;;14.40;93.40;;;;;;4977349;28;20394;-79
2022/09/26 00:16:12;;;;;;;3.10;2.00;;;14.40;93.40;;;;;;4977900;28;20073;-79
2022/09/26 00:18:38;;;;;;;1.80;1.60;;;14.40;93.30;;;;;;4980428;28;20089;-77
2022/09/26 00:21:10;;;;;;;5.07;2.25;;;14.40;93.20;;;;;;4979755;28;20030;-80
2022/09/26 00:23:36;;;;;;;2.58;1.65;;;14.40;93.00;;;;;;4981565;28;20060;-77
2022/09/26 00:26:03;;;;;;;4.00;2.03;;;14.30;92.90;;;;;;4980448;28;20535;-77
2022/09/26 00:28:29;;;;;;;2.08;1.88;;;14.20;93.10;;;;;;4993315;28;20042;-79
2022/09/26 00:30:55;;;;;;;1.98;1.77;;;14.10;93.10;;;;;;4984385;28;20548;-79
2022/09/26 00:33:22;;;;;;;2.88;1.80;;;14.10;93.10;;;;;;4978750;28;20034;-79
2022/09/26 00:35:55;;;;;;;3.00;1.95;;;14.00;93.20;;;;;;4976697;28;20034;-79
2022/09/26 00:38:21;;;;;;;2.30;1.90;;;13.90;93.30;;;;;;4972837;28;20431;-80
2022/09/26 00:40:48;;;;;;;4.78;2.55;;;13.80;93.30;;;;;;4982389;28;20394;-79
2022/09/26 00:43:52;;;;;;;3.70;2.08;;;13.70;93.40;;;;;;4998072;28;20046;-80
2022/09/26 00:46:45;;;;;;;2.42;1.95;;;13.70;93.50;;;;;;4971944;28;20038;-80
2022/09/26 00:49:30;;;;;;;3.42;2.05;;;13.60;93.70;;;;;;4977003;28;20081;-80
2022/09/26 00:52:22;;;;;;;2.47;2.13;;;13.60;93.90;;;;;;4987650;28;20735;-80
2022/09/26 00:54:53;;;;;;;3.38;1.92;;;13.60;94.00;;;;;;4973672;28;20038;-80
2022/09/26 00:57:25;;;;;;;5.00;2.20;;;13.60;94.20;;;;;;4979371;28;20046;-80
2022/09/26 00:59:57;;;;;;;2.60;2.22;;;13.60;94.30;;;;;;4981647;28;20070;-80
2022/09/26 01:02:24;;;;;;;3.50;2.33;;;13.60;94.40;;;;;;4981645;28;20040;-80
2022/09/26 01:04:51;;;;;;;6.47;2.88;;;13.60;94.50;;;;;;4981886;28;20038;-80
2022/09/26 01:07:20;;;;;;;3.85;2.10;;;13.60;94.50;;;;;;4997125;28;20030;-80
2022/09/26 01:09:47;;;;;;;6.88;2.30;;;13.60;94.50;;;;;;4998092;28;20449;-81
2022/09/26 01:12:15;;;;;;;2.85;2.30;;;13.60;94.50;;;;;;4985960;28;20050;-80
2022/09/26 01:14:42;;;;;;;6.63;2.90;;;13.70;94.70;;;;;;4987927;28;20565;-80
2022/09/26 01:17:09;;;;;;;3.92;2.60;;;13.70;94.70;;;;;;4992692;28;20038;-80
2022/09/26 01:19:54;;;;;;;3.80;2.40;;;13.70;94.60;;;;;;4977379;28;20526;-81
2022/09/26 01:22:25;;;;;;;4.05;2.53;;;13.80;94.60;;;;;;5004644;28;20121;-80
2022/09/26 01:24:54;;;;;;;4.45;2.33;;;13.80;94.60;;;;;;5001061;28;20045;-80
2022/09/26 01:27:35;;;;;;;5.20;1.92;;;13.80;94.50;;;;;;4980625;28;20081;-81
2022/09/26 01:30:05;;;;;;;3.92;2.00;;;13.80;94.40;;;;;;4996044;28;20038;-81
2022/09/26 01:32:52;;;;;;;2.70;2.22;;;13.90;94.40;;;;;;4989613;28;20498;-81
2022/09/26 01:35:34;;;;;;;2.55;2.10;;;13.90;94.30;;;;;;4996440;28;20030;-79
2022/09/26 01:38:36;;;;;;;3.28;1.92;;;13.90;94.30;;;;;;4995816;28;20037;-79
2022/09/26 01:41:19;;;;;;;3.38;1.60;;;13.90;94.20;;;;;;4994553;28;20034;-79
2022/09/26 01:43:56;;;;;;;2.20;1.95;;;13.90;94.20;;;;;;4978917;28;20052;-79
2022/09/26 01:46:34;;;;;;;2.53;1.90;;;13.90;94.20;;;;;;4995181;28;20397;-79
2022/09/26 01:49:13;;;;;;;3.10;2.05;;;13.90;94.20;;;;;;4997243;28;20045;-79
2022/09/26 01:51:54;;;;;;;3.85;2.10;;;13.80;94.20;;;;;;4986956;28;20029;-79
2022/09/26 01:54:26;;;;;;;3.50;2.70;;;13.90;94.10;;;;;;4980557;28;20101;-79
2022/09/26 01:56:57;;;;;;;4.05;2.20;;;13.90;94.10;;;;;;4980569;28;20093;-79
2022/09/26 01:59:48;;;;;;;4.53;2.50;;;13.90;94.00;;;;;;4991682;28;20458;-79
2022/09/26 02:02:24;;;;;;;2.90;2.03;;;13.90;94.20;;;;;;4992803;28;20042;-79
2022/09/26 02:04:58;;;;;;;5.18;2.70;;;13.90;93.90;;;;;;4991202;28;20070;-79
2022/09/26 02:07:39;;;;;;;3.60;2.35;;;13.90;93.90;;;;;;4980429;28;20030;-79
2022/09/26 02:10:20;;;;;;;2.47;1.98;;;13.90;93.90;;;;;;4989125;28;20035;-79
2022/09/26 02:12:53;;;;;;;3.47;2.25;;;14.00;93.60;;;;;;4981041;28;20022;-79
2022/09/26 02:15:24;;;;;;;6.53;2.15;;;14.00;93.60;;;;;;4995329;28;20038;-79
2022/09/26 02:18:01;;;;;;;4.82;2.60;;;14.00;93.70;;;;;;4974510;28;20513;-80
2022/09/26 02:20:34;;;;;;;3.80;2.25;;;13.90;93.50;;;;;;5012537;28;20145;-79
2022/09/26 02:23:02;;;;;;;3.38;2.13;;;13.90;93.50;;;;;;4996242;28;20066;-79
2022/09/26 02:25:29;;;;;;;3.45;2.17;;;13.90;93.50;;;;;;4978566;28;20045;-79
2022/09/26 02:27:56;;;;;;;4.65;3.13;;;13.90;93.60;;;;;;4982073;28;20453;-79
2022/09/26 02:30:22;;;;;;;2.83;2.17;;;13.90;93.60;;;;;;4982420;28;20034;-79
2022/09/26 02:32:48;;;;;;;5.35;2.30;;;13.90;93.50;;;;;;4987485;28;20465;-80
2022/09/26 02:38:01;;;;;;;3.85;2.28;;;13.90;93.40;;;;;;4992496;28;20060;-79
2022/09/26 02:40:48;;;;;;;5.15;3.08;;;13.90;93.40;;;;;;5009130;28;20736;-80
2022/09/26 02:43:14;;;;;;;6.47;2.80;;;13.90;93.40;;;;;;4977396;28;20034;-79
2022/09/26 02:45:46;;;;;;;6.57;2.83;;;13.90;93.30;;;;;;4986187;28;20097;-79
2022/09/26 02:48:29;;;;;;;5.63;2.28;;;13.90;93.20;;;;;;4984806;28;20038;-79
2022/09/26 02:51:14;;;;;;;5.25;2.60;;;13.90;93.20;;;;;;4991564;28;20497;-79
2022/09/26 02:53:59;;;;;;;4.57;2.72;;;13.80;93.20;;;;;;5011092;28;20100;-79
2022/09/26 02:56:45;;;;;;;2.67;1.92;;;13.80;93.30;;;;;;4998444;28;20022;-79
2022/09/26 02:59:51;;;;;;;2.47;1.98;;;13.70;93.30;;;;;;4991725;28;20038;-79
2022/09/26 03:02:30;;;;;;;3.55;2.50;;;13.60;93.40;;;;;;4966979;28;20039;-79
2022/09/26 03:05:23;;;;;;;3.90;2.67;;;13.50;93.40;;;;;;4981880;28;20030;-79
2022/09/26 03:07:56;;;;;;;4.43;2.20;;;13.40;93.40;;;;;;4997427;28;20077;-79
2022/09/26 03:10:25;;;;;;;4.80;2.70;;;13.40;93.50;;;;;;4985552;28;20041;-79
2022/09/26 03:12:54;;;;;;;3.85;2.15;;;13.30;93.60;;;;;;4999697;28;20035;-79
2022/09/26 03:15:22;;;;;;;3.72;2.10;;;13.20;93.70;;;;;;5022616;28;20083;-79
2022/09/26 03:17:52;;;;;;;3.50;2.20;;;13.20;93.80;;;;;;4979583;28;20736;-79
2022/09/26 03:20:22;;;;;;;2.88;2.17;;;13.10;93.90;;;;;;4987514;28;20063;-78
2022/09/26 03:22:51;;;;;;;4.53;1.80;;;13.10;94.10;;;;;;4978107;28;20022;-79
2022/09/26 03:25:27;;;;;;;3.05;2.08;;;13.10;94.50;;;;;;4983826;28;20038;-79
2022/09/26 03:28:03;;;;;;;4.22;2.00;;;13.10;94.40;;;;;;4997685;28;20741;-79
2022/09/26 03:30:29;;;;;;;4.65;2.30;;;13.10;94.50;;;;;;4984200;28;20061;-79
2022/09/26 03:33:31;;;;;;;2.15;1.95;;;13.10;94.50;;;;;;4976859;28;20042;-79
2022/09/26 03:36:00;;;;;;;3.33;2.10;;;13.10;94.60;;;;;;4983423;28;20039;-80
2022/09/26 03:38:26;;;;;;;4.00;2.00;;;13.10;94.70;;;;;;5007487;28;20563;-78
2022/09/26 03:41:04;;;;;;;2.33;2.10;;;13.20;94.80;;;;;;5003425;28;20049;-78
2022/09/26 03:43:48;;;;;;;3.40;3.10;;;13.20;94.80;;;;;;4986879;28;20155;-79
2022/09/26 03:46:14;;;;;;;4.88;2.30;;;13.20;94.70;;;;;;4979022;28;20980;-79
2022/09/26 03:48:40;;;;;;;3.95;2.10;;;13.20;94.50;;;;;;4983706;28;20031;-79
2022/09/26 03:51:09;;;;;;;2.80;2.00;;;13.10;94.50;;;;;;4980062;28;20468;-79
2022/09/26 03:53:39;;;;;;;3.25;2.13;;;13.10;94.60;;;;;;4997870;28;20030;-79
2022/09/26 03:56:11;;;;;;;3.53;2.40;;;13.10;94.60;;;;;;4979838;28;20680;-79
2022/09/26 03:58:37;;;;;;;2.97;2.55;;;13.00;94.60;;;;;;4981013;28;20035;-79
2022/09/26 04:01:10;;;;;;;5.15;2.30;;;13.00;94.50;;;;;;4979175;28;20853;-79
2022/09/26 04:03:37;;;;;;;3.55;2.17;;;12.90;94.50;;;;;;5008821;28;20037;-78
2022/09/26 04:06:05;;;;;;;2.63;2.10;;;12.80;94.40;;;;;;4979285;28;20041;-78
2022/09/26 04:08:30;;;;;;;3.92;2.40;;;12.80;94.40;;;;;;4989836;28;20029;-78
2022/09/26 04:11:14;;;;;;;5.60;2.58;;;12.70;94.40;;;;;;4986650;28;20486;-79
2022/09/26 04:13:42;;;;;;;3.30;2.13;;;12.70;94.40;;;;;;4996043;28;20034;-79
2022/09/26 04:16:09;;;;;;;3.63;2.28;;;12.70;94.40;;;;;;4973188;28;20637;-78
2022/09/26 04:18:36;;;;;;;3.90;2.17;;;12.60;94.50;;;;;;4991185;28;20034;-78
2022/09/26 04:21:08;;;;;;;3.05;2.60;;;12.50;94.60;;;;;;4979543;28;20046;-78
2022/09/26 04:23:36;;;;;;;3.35;2.35;;;12.50;94.60;;;;;;4997761;28;20037;-79
2022/09/26 04:26:24;;;;;;;3.60;2.88;;;12.40;94.60;;;;;;5000383;28;20034;-79
2022/09/26 04:28:54;;;;;;;3.33;2.40;;;12.40;94.70;;;;;;4987087;28;20871;-79
2022/09/26 04:31:23;;;;;;;4.40;3.17;;;12.30;94.80;;;;;;5005050;28;20027;-79
2022/09/26 04:33:54;;;;;;;7.28;3.00;;;12.30;94.90;;;;;;4983766;28;20022;-79
2022/09/26 04:36:22;;;;;;;4.22;2.30;;;12.30;95.10;;;;;;5010370;28;20497;-79
2022/09/26 04:38:48;;;;;;;4.55;3.20;;;12.20;95.10;;;;;;4974542;28;20026;-79
2022/09/26 04:41:18;;;;;;;2.42;2.22;;;12.20;95.10;;;;;;4991751;28;20091;-78
2022/09/26 04:43:47;;;;;;;3.63;2.50;;;12.20;95.20;;;;;;4984264;28;20049;-80
2022/09/26 04:46:20;;;;;;;3.50;2.38;;;12.20;95.10;;;;;;4973354;28;20532;-80
2022/09/26 04:48:49;;;;;;;3.47;2.40;;;12.10;95.30;;;;;;5004844;28;20039;-78
2022/09/26 04:51:19;;;;;;;3.67;2.50;;;12.10;95.40;;;;;;5016007;28;20064;-80
2022/09/26 04:53:47;;;;;;;4.15;2.63;;;12.10;95.50;;;;;;4988814;28;20117;-80
2022/09/26 04:56:25;;;;;;;3.45;2.35;;;12.10;95.60;;;;;;4981624;28;20401;-80
2022/09/26 04:58:53;;;;;;;3.35;2.33;;;12.10;95.80;;;;;;4993818;28;21000;-80
2022/09/26 05:01:20;;;;;;;3.75;2.60;;;12.10;95.80;;;;;;4985294;28;20647;-80
2022/09/26 05:04:02;;;;;;;4.13;2.50;;;12.10;95.90;;;;;;4982089;28;20069;-80
2022/09/26 05:06:30;;;;;;;2.85;2.10;;;12.10;95.90;;;;;;5014722;28;20034;-80
2022/09/26 05:08:58;;;;;;;5.00;2.58;;;12.10;96.00;;;;;;4985975;28;20039;-80
2022/09/26 05:11:44;;;;;;;3.35;2.35;;;12.10;96.00;;;;;;4990776;28;20513;-80
2022/09/26 05:14:12;;;;;;;5.50;2.55;;;12.10;96.00;;;;;;4974856;28;20023;-80
2022/09/26 05:16:38;;;;;;;4.10;2.63;;;12.10;96.20;;;;;;4980856;28;20494;-80
2022/09/26 05:19:05;;;;;;;5.15;2.65;;;12.10;96.00;;;;;;4985916;28;20031;-80
2022/09/26 05:21:34;;;;;;;2.40;2.20;;;12.10;96.00;;;;;;4991081;28;20038;-80
2022/09/26 05:26:48;;;;;;;2.50;1.95;;;12.10;96.10;;;;;;4988160;28;20030;-80
2022/09/26 05:29:15;;;;;;;4.90;2.78;;;12.20;96.10;;;;;;4983706;28;20038;-80
2022/09/26 05:32:03;;;;;;;3.20;2.65;;;12.10;96.10;;;;;;4982206;28;20041;-80
2022/09/26 05:34:34;;;;;;;2.97;2.45;;;12.20;96.00;;;;;;4991812;28;20049;-80
2022/09/26 05:37:00;;;;;;;3.90;2.30;;;12.20;96.00;;;;;;4991982;28;20038;-80
2022/09/26 05:42:12;;;;;;;3.70;2.40;;;12.20;96.10;;;;;;5002743;28;20034;-79
2022/09/26 05:44:38;;;;;;;6.47;2.53;;;12.20;96.10;;;;;;4983519;28;20155;-79
2022/09/26 05:47:04;;;;;;;4.15;2.50;;;12.20;96.10;;;;;;5008425;28;20128;-78
2022/09/26 05:49:32;;;;;;;2.80;2.33;;;12.20;96.00;;;;;;4972954;28;20117;-79
2022/09/26 05:51:58;;;;;;;6.57;2.60;;;12.20;96.10;;;;;;5003956;28;20123;-78
2022/09/26 05:54:24;;;;;;;5.97;2.40;;;12.20;96.10;;;;;;4976175;28;20042;-79
2022/09/26 05:56:52;;;;;;;6.00;2.83;;;12.30;96.20;;;;;;4996520;28;20425;-78
2022/09/26 05:59:21;;;;;;;4.18;2.72;;;12.30;96.20;;;;;;4982605;28;20062;-78
2022/09/26 06:02:11;;;;;;;4.22;2.97;;;12.30;96.10;;;;;;4983944;28;20034;-78
2022/09/26 06:04:51;;;;;;;4.25;3.05;;;12.40;96.40;;;;;;4987058;28;20037;-78
2022/09/26 06:07:37;;;;;;;6.57;3.88;;;12.40;96.10;;;;;;4957026;28;20134;-78
2022/09/26 06:10:07;;;;;;;10.60;4.22;;;12.50;96.20;;;;;;5013188;28;20030;-78
2022/09/26 06:12:40;;;;;;;5.38;4.07;;;12.50;96.30;;;;;;4977566;28;20022;-78
2022/09/26 06:15:08;;;;;;;6.85;4.57;;;12.60;96.40;;;;;;4980972;28;20030;-80
2022/09/26 06:17:35;;;;;;;6.80;3.88;;;12.60;96.30;;;;;;4981722;28;20433;-78
2022/09/26 06:20:02;;;;;;;5.25;4.55;;;12.70;96.20;;;;;;4984516;28;20088;-80
2022/09/26 06:22:32;;;;;;;7.30;4.20;;;12.80;96.20;;;;;;4987575;28;20902;-77
2022/09/26 06:24:59;;;;;;;9.13;4.32;;;12.80;96.10;;;;;;4991317;28;20686;-80
2022/09/26 06:27:25;;;;;;;7.38;3.72;;;12.90;96.00;;;;;;5007074;28;20033;-78
2022/09/26 06:29:50;;;;;;;10.23;4.60;;;12.90;96.00;;;;;;4980815;28;20129;-77
2022/09/26 06:32:17;;;;;;;8.90;4.90;;;13.00;95.90;;;;;;4973568;28;20548;-77
2022/09/26 06:35:05;;;;;;;6.85;4.47;;;13.10;95.80;;;;;;4976760;28;20037;-80
2022/09/26 06:37:52;;;;;;;;;;;13.20;95.60;;;;;;4991822;28;20125;-80
2022/09/26 06:40:18;;;;;;;;;;;13.20;95.30;;;;;;4991797;28;20745;-80
2022/09/26 06:42:45;;;;;;;8.07;4.10;;;13.20;95.20;;;;;;4984406;28;19910;-78
2022/09/26 06:45:25;;;;;;;8.15;4.50;;;13.30;95.30;;;;;;4997343;28;20114;-78
2022/09/26 06:48:17;;;;;;;6.45;4.68;;;13.40;95.00;;;;;;4969465;28;20509;-79
2022/09/26 06:51:13;;;;;;;5.68;3.65;;;13.50;95.00;;;;;;4966848;28;20038;-76
2022/09/26 06:53:39;;;;;;;9.35;4.13;;;13.50;94.90;;;;;;4981212;28;20085;-75
2022/09/26 06:56:05;;;;;;;8.00;4.07;;;13.60;94.90;;;;;;4972744;28;20045;-75
2022/09/26 06:58:31;;;;;;;6.68;3.72;;;13.60;94.70;;;;;;4975885;28;20129;-75
2022/09/26 07:01:05;;;;;;;5.78;4.13;;;13.70;94.60;;;;;;5005986;28;20043;-74
2022/09/26 07:03:49;;;;;;;;;;;13.80;94.80;;;;;;4968942;28;20766;-72
2022/09/26 07:06:37;;;;;;;6.70;3.80;;;13.90;94.20;;;;;;5009198;28;19920;-73
2022/09/26 07:09:04;;;;;;;6.95;3.40;;;14.30;93.70;;;;;;4990267;28;20035;-76
2022/09/26 07:12:00;;;;;;;7.43;4.80;;;14.60;93.00;;;;;;4990902;28;20770;-76
2022/09/26 07:14:26;;;;;;;9.05;4.90;;;14.90;92.10;;;;;;4989805;28;20031;-76
2022/09/26 07:16:58;;;;;;;13.93;4.32;;;15.10;91.40;;;;;;4984888;28;20034;-76
2022/09/26 07:19:51;;;;;;;6.07;4.05;;;15.30;90.70;;;;;;4986169;28;20031;-76
2022/09/26 07:22:37;;;;;;;7.13;4.20;;;15.40;90.10;;;;;;4972865;28;20390;-75
2022/09/26 07:25:03;;;;;;;7.40;3.70;;;15.40;90.10;;;;;;4968246;28;20030;-76
2022/09/26 07:27:29;;;;;;;6.03;3.17;;;15.40;89.70;;;;;;4977079;28;20030;-77
2022/09/26 07:29:59;;;;;;;7.32;3.63;;;15.20;90.00;;;;;;5009048;28;20986;-77
2022/09/26 07:32:28;;;;;;;6.28;3.65;;;15.20;90.10;;;;;;4987598;28;20045;-77
2022/09/26 07:35:10;;;;;;;5.07;3.50;;;15.20;90.40;;;;;;5004505;28;20042;-78
2022/09/26 07:37:36;;;;;;;8.40;3.38;;;15.20;90.20;;;;;;4982818;28;20030;-69
2022/09/26 07:40:02;;;;;;;5.65;3.28;;;15.30;89.90;;;;;;4985702;28;20038;-73
2022/09/26 07:42:31;;;;;;;5.50;2.95;;;15.20;90.30;;;;;;4979157;28;20643;-74
2022/09/26 07:44:57;;;;;;;5.75;2.78;;;15.20;90.30;;;;;;4973677;28;20061;-75
2022/09/26 07:50:27;;;;;;;5.47;2.75;;;15.20;89.70;;;;;;4975959;28;20034;-72
2022/09/26 07:53:12;;;;;;;5.57;2.75;;;15.10;89.00;;;;;;4986017;28;20824;-71
2022/09/26 07:56:04;;;;;;;5.78;2.35;;;15.10;89.80;;;;;;4975557;28;20128;-73
2022/09/26 07:58:49;;;;;;;4.15;1.65;;;15.10;89.70;;;;;;4974434;28;20069;-74
2022/09/26 08:01:37;;;;;;;4.47;2.20;;;15.20;88.50;;;;;;4987903;28;20049;-73
2022/09/26 08:04:21;;;;;;;6.63;2.47;;;15.20;87.90;;;;;;4976437;28;20050;-72
2022/09/26 08:06:48;;;;;;;4.28;1.83;;;15.20;87.40;;;;;;4985294;28;20053;-76
2022/09/26 08:09:14;;;;;;;4.20;1.70;;;15.20;87.00;;;;;;4971719;28;20031;-74
2022/09/26 08:12:01;;;;;;;3.25;2.03;;;15.30;88.50;;;;;;4967466;28;20043;-73
2022/09/26 08:14:53;;;;;;;4.22;1.90;;;15.40;87.40;;;;;;4969752;28;20030;-77
2022/09/26 08:17:35;;;;;;;7.22;1.73;;;15.40;85.40;;;;;;5001193;28;20030;-75
2022/09/26 08:20:02;;;;;;;3.15;1.40;;;15.50;86.10;;;;;;4973469;28;20085;-75
2022/09/26 08:22:28;;;;;;;5.50;1.30;;;15.50;84.40;;;;;;4979238;28;20062;-76
2022/09/26 08:24:54;;;;;;;3.35;1.17;;;15.50;83.80;;;;;;4977015;28;20105;-75
2022/09/26 08:27:34;;;;;;;4.28;1.50;;;15.50;85.50;;;;;;4975820;28;20406;-76
2022/09/26 08:30:03;;;;;;;4.45;1.48;;;15.70;84.30;;;;;;5007300;28;20027;-75
2022/09/26 08:32:31;;;;;;;2.65;1.25;;;15.60;83.00;;;;;;4987718;28;20040;-71
2022/09/26 08:34:57;;;;;;;3.75;1.30;;;15.70;83.60;;;;;;4986828;28;20138;-75
2022/09/26 08:37:31;;;;;;;3.33;2.00;;;15.80;83.00;;;;;;4967043;28;20049;-82
2022/09/26 08:40:20;;;;;;;2.27;1.33;;;15.90;82.20;;;;;;4976654;28;20117;-76
2022/09/26 08:43:35;;;;;;;2.63;1.40;;;16.10;81.00;;;;;;4952315;28;20593;-77
2022/09/26 08:47:04;;;;;;;2.45;0.93;;;16.70;77.70;;;;;;4972797;28;20042;-77
2022/09/26 08:49:59;;;;;;;2.15;1.05;;;17.20;74.60;;;;;;4988872;28;20438;-75
2022/09/26 08:52:45;;;;;;;2.83;1.10;;;17.60;74.00;;;;;;5009071;28;20027;-76
2022/09/26 08:55:22;;;;;;;1.98;0.75;;;17.80;74.40;;;;;;4970009;28;20541;-75
2022/09/26 08:58:19;;;;;;;3.58;1.48;;;18.00;72.10;;;;;;4979012;28;20126;-77
2022/09/26 09:00:50;;;;;;;1.65;1.17;;;18.00;71.10;;;;;;4975972;28;20048;-78
2022/09/26 09:03:28;;;;;;;2.67;1.00;;;17.90;71.00;;;;;;4986840;28;20038;-77
2022/09/26 09:06:04;;;;;;;2.47;1.00;;;17.80;70.10;;;;;;4987323;28;20462;-77
2022/09/26 09:08:55;;;;;;;2.95;1.45;;;17.60;71.10;;;;;;4990312;28;20056;-77
2022/09/26 09:11:38;;;;;;;12.67;4.93;;;17.60;71.20;;;;;;4980699;28;20495;-79
2022/09/26 09:14:27;;;;;;;4.35;1.10;;;17.70;71.40;;;;;;4982633;28;21242;-75
2022/09/26 09:17:29;;;;;;;2.03;0.80;;;17.80;69.80;;;;;;4985702;28;20045;-76
2022/09/26 09:20:35;;;;;;;4.03;1.00;;;17.90;69.00;;;;;;4998904;28;20038;-76
2022/09/26 09:23:49;;;;;;;3.33;1.58;;;17.90;70.20;;;;;;4991156;28;20648;-76
2022/09/26 09:26:19;;;;;;;8.27;5.07;;;18.00;69.10;;;;;;4985138;28;20121;-76
2022/09/26 09:29:23;;;;;;;3.03;0.70;;;18.00;68.40;;;;;;4981196;28;20045;-76
2022/09/26 09:32:16;;;;;;;3.42;0.75;;;18.00;67.70;;;;;;4978292;28;20066;-77
2022/09/26 09:34:56;;;;;;;29.25;15.68;;;17.80;67.20;;;;;;5006490;28;20079;-77
2022/09/26 09:37:55;;;;;;;2.28;1.42;;;17.80;68.50;;;;;;4944542;28;20502;-77
2022/09/26 09:40:54;;;;;;;27.52;11.63;;;17.90;67.40;;;;;;4984520;28;20446;-76
2022/09/26 09:43:42;;;;;;;4.07;2.40;;;17.90;67.00;;;;;;4990501;28;20455;-77
2022/09/26 09:46:27;;;;;;;1.98;0.70;;;17.90;66.80;;;;;;4979433;28;20027;-77
2022/09/26 09:49:09;;;;;;;4.68;0.95;;;17.80;66.40;;;;;;4977422;28;20039;-75
2022/09/26 09:52:04;;;;;;;3.13;0.70;;;17.90;66.90;;;;;;4993636;28;20902;-75
2022/09/26 09:54:43;;;;;;;2.97;1.00;;;17.90;67.90;;;;;;5009778;28;20029;-75
2022/09/26 09:57:21;;;;;;;2.42;1.08;;;18.00;67.70;;;;;;4996873;28;20079;-75
2022/09/26 10:00:07;;;;;;;2.67;0.73;;;18.10;67.30;;;;;;4980035;28;20041;-74
2022/09/26 10:02:58;;;;;;;2.15;0.70;;;18.20;64.30;;;;;;4972723;28;20753;-75
2022/09/26 10:05:35;;;;;;;2.92;0.60;;;18.00;65.80;;;;;;5007132;28;20030;-75
2022/09/26 10:08:01;;;;;;;3.80;0.82;;;17.90;65.90;;;;;;5001196;28;20074;-75
2022/09/26 10:11:23;;;;;;;1.85;0.77;;;17.90;64.80;;;;;;4973317;28;20097;-75
2022/09/26 10:14:00;;;;;;;3.63;0.70;;;17.60;65.50;;;;;;4979724;28;20037;-75
2022/09/26 10:17:08;;;;;;;2.13;0.52;;;17.60;66.80;;;;;;4980261;28;20042;-72
2022/09/26 10:19:42;;;;;;;6.70;2.40;;;17.60;67.00;;;;;;5003739;28;20744;-73
2022/09/26 10:22:24;;;;;;;190.80;79.43;;;17.50;66.80;;;;;;4988396;28;20108;-72
2022/09/26 10:24:58;;;;;;;32.78;16.35;;;17.40;68.50;;;;;;5006481;28;20034;-72
2022/09/26 10:27:35;;;;;;;7.50;4.20;;;17.50;68.80;;;;;;4986414;28;20555;-72
2022/09/26 10:30:18;;;;;;;4.22;2.50;;;17.70;67.60;;;;;;4974624;28;20134;-75
2022/09/26 10:32:52;;;;;;;6.20;3.20;;;17.70;67.20;;;;;;4985470;28;20553;-75
2022/09/26 10:35:44;;;;;;;4.15;2.33;;;17.80;67.80;;;;;;4993022;28;20150;-75
2022/09/26 10:38:21;;;;;;;2.65;1.70;;;18.00;67.80;;;;;;4977602;28;20138;-73
2022/09/26 10:40:57;;;;;;;4.18;0.90;;;18.20;67.70;;;;;;4996299;28;20031;-75
2022/09/26 10:43:29;;;;;;;4.38;0.90;;;18.40;66.20;;;;;;4990886;28;20031;-75
2022/09/26 10:46:13;;;;;;;3.22;0.90;;;18.50;65.90;;;;;;5004650;28;20476;-78
2022/09/26 10:49:01;;;;;;;0.98;0.80;;;18.70;65.80;;;;;;4981796;28;20143;-77
2022/09/26 10:51:44;;;;;;;1.30;0.68;;;18.80;66.40;;;;;;4985751;28;20080;-81
2022/09/26 10:54:22;;;;;;;3.60;1.25;;;18.90;64.80;;;;;;5008948;28;20039;-79
2022/09/26 10:56:58;;;;;;;1.83;1.23;;;19.10;65.70;;;;;;4973301;28;20765;-74
2022/09/26 10:59:30;;;;;;;4.43;1.67;;;19.40;62.20;;;;;;4994506;28;20042;-74
2022/09/26 11:01:58;;;;;;;3.38;1.25;;;19.50;60.40;;;;;;4990047;28;20038;-72
2022/09/26 11:07:38;;;;;;;1.98;1.20;;;19.10;60.90;;;;;;4967121;28;20389;-72
2022/09/26 11:10:21;;;;;;;2.92;0.90;;;18.80;62.60;;;;;;4984189;28;20646;-73
2022/09/26 11:13:14;;;;;;;3.13;1.20;;;18.60;62.20;;;;;;5001274;28;20043;-75
2022/09/26 11:16:00;;;;;;;3.58;1.00;;;18.40;63.50;;;;;;4986611;28;20209;-74
2022/09/26 11:18:56;;;;;;;3.08;1.02;;;18.30;63.60;;;;;;4974140;28;20109;-73
2022/09/26 11:21:33;;;;;;;2.20;1.20;;;18.30;65.30;;;;;;4990901;28;20031;-75
2022/09/26 11:24:35;;;;;;;1.42;0.80;;;18.30;65.70;;;;;;4973041;28;20054;-76
2022/09/26 11:27:30;;;;;;;4.80;1.02;;;18.30;65.20;;;;;;4973483;28;20039;-75
2022/09/26 11:30:11;;;;;;;2.47;0.80;;;18.20;67.10;;;;;;4983331;28;20035;-78
2022/09/26 11:32:47;;;;;;;2.92;1.20;;;18.10;65.90;;;;;;5011707;28;20030;-74
2022/09/26 11:36:09;;;;;;;1.85;0.80;;;18.00;67.00;;;;;;4974986;28;20030;-75
2022/09/26 11:38:45;;;;;;;1.42;0.93;;;18.00;65.60;;;;;;5006584;28;20036;-77
2022/09/26 11:41:36;;;;;;;;;;;18.10;67.50;;;;;;4981139;28;20493;-74
2022/09/26 11:44:39;;;;;;;2.65;0.70;;;18.20;65.80;;;;;;4987658;28;19921;-75
2022/09/26 11:47:35;;;;;;;5.30;1.98;;;18.20;64.10;;;;;;4976980;28;20044;-81
2022/09/26 11:50:17;;;;;;;2.97;1.27;;;18.10;64.30;;;;;;5002630;28;20042;-75
2022/09/26 11:53:27;;;;;;;1.95;1.13;;;18.10;63.80;;;;;;4976444;28;20042;-75
2022/09/26 11:56:38;;;;;;;4.88;1.08;;;17.90;66.10;;;;;;4976065;28;20933;-75
2022/09/26 11:59:23;;;;;;;5.25;1.75;;;17.90;65.40;;;;;;4962283;28;20051;-71
2022/09/26 12:02:34;;;;;;;3.50;0.75;;;17.90;66.00;;;;;;4979675;28;20084;-73
2022/09/26 12:05:24;;;;;;;1.52;0.80;;;17.80;64.90;;;;;;4935958;28;20127;-74
2022/09/26 12:08:24;;;;;;;2.63;1.00;;;17.60;65.40;;;;;;4972096;28;20046;-74
2022/09/26 12:10:53;;;;;;;4.80;0.90;;;17.40;66.00;;;;;;4971436;28;20140;-74
2022/09/26 12:13:39;;;;;;;3.10;0.82;;;17.30;66.60;;;;;;4973780;28;20513;-73
2022/09/26 12:16:37;;;;;;;1.67;1.02;;;17.30;67.00;;;;;;4973015;28;20030;-72
2022/09/26 12:19:18;;;;;;;2.00;1.08;;;17.30;68.40;;;;;;4964384;28;20117;-78
2022/09/26 12:25:06;;;;;;;4.25;0.85;;;17.50;67.70;;;;;;4968337;28;20047;-77
2022/09/26 12:27:59;;;;;;;1.73;0.80;;;17.60;67.00;;;;;;4973517;28;20050;-76
2022/09/26 12:30:32;;;;;;;3.15;0.90;;;17.60;66.80;;;;;;4984007;28;20032;-77
2022/09/26 12:33:04;;;;;;;3.78;0.73;;;17.70;66.90;;;;;;4972713;28;20490;-77
2022/09/26 12:35:36;;;;;;;5.05;1.05;;;17.70;65.50;;;;;;4980897;28;20049;-77
2022/09/26 12:38:27;;;;;;;3.47;1.00;;;17.70;65.90;;;;;;4986887;28;20224;-76
2022/09/26 12:40:52;;;;;;;2.72;1.00;;;17.80;66.80;;;;;;4972719;28;20568;-77
2022/09/26 12:43:30;;;;;;;2.45;0.90;;;17.80;64.20;;;;;;4981331;28;20030;-76
2022/09/26 12:46:16;;;;;;;4.07;1.00;;;17.80;65.50;;;;;;4975740;28;20046;-77
2022/09/26 12:49:00;;;;;;;3.90;1.23;;;17.90;63.90;;;;;;4982873;28;20040;-78
2022/09/26 12:51:53;;;;;;;4.72;0.80;;;17.90;64.90;;;;;;4980098;28;20040;-77
2022/09/26 12:54:40;;;;;;;2.08;0.73;;;18.00;63.10;;;;;;4971614;28;20026;-76
2022/09/26 12:57:38;;;;;;;2.03;0.70;;;18.00;61.90;;;;;;4978671;28;20041;-77
2022/09/26 13:00:20;;;;;;;2.58;0.70;;;18.00;61.90;;;;;;4966511;28;20083;-77
2022/09/26 13:02:58;;;;;;;3.40;0.75;;;17.90;61.90;;;;;;4971773;28;20057;-77
2022/09/26 13:05:42;;;;;;;3.42;0.80;;;17.90;62.20;;;;;;4974611;28;20065;-76
2022/09/26 13:08:42;;;;;;;5.75;0.80;;;17.90;62.60;;;;;;4976847;28;20397;-76
2022/09/26 13:11:19;;;;;;;0.50;0.32;;;17.90;62.00;;;;;;4977005;28;20586;-76
2022/09/26 13:14:17;;;;;;;3.13;1.02;;;17.90;61.50;;;;;;4969418;28;20026;-74
2022/09/26 13:16:59;;;;;;;4.78;0.80;;;17.80;61.00;;;;;;4986098;28;20070;-75
2022/09/26 13:19:51;;;;;;;1.95;0.50;;;17.80;60.60;;;;;;4979857;28;20111;-75
2022/09/26 13:22:56;;;;;;;3.10;0.80;;;17.80;61.60;;;;;;4972915;28;20058;-75
2022/09/26 13:25:34;;;;;;;1.20;0.50;;;17.90;61.80;;;;;;4977325;28;20732;-76
2022/09/26 13:28:17;;;;;;;2.70;0.80;;;17.80;62.10;;;;;;5007331;28;20050;-74
2022/09/26 13:31:04;;;;;;;3.55;0.57;;;17.70;62.50;;;;;;4972952;28;20041;-74
2022/09/26 13:33:38;;;;;;;1.70;0.82;;;17.60;63.00;;;;;;4974513;28;20030;-79
2022/09/26 13:36:08;;;;;;;0.73;0.47;;;17.60;62.60;;;;;;4981199;28;20585;-75
2022/09/26 13:38:57;;;;;;;3.03;0.80;;;17.70;63.30;;;;;;4968785;28;20037;-74
2022/09/26 13:41:42;;;;;;;3.15;0.70;;;17.70;64.20;;;;;;4971989;28;20043;-74
2022/09/26 13:44:31;;;;;;;2.37;0.97;;;17.70;63.90;;;;;;4978396;28;20041;-74
2022/09/26 13:47:22;;;;;;;3.75;0.90;;;17.80;64.70;;;;;;4973511;28;20049;-75
2022/09/26 13:50:11;;;;;;;3.88;0.70;;;17.80;63.10;;;;;;4970130;28;20623;-74
2022/09/26 13:53:08;;;;;;;2.35;0.57;;;17.80;62.70;;;;;;4972216;28;20038;-75
2022/09/26 13:55:34;;;;;;;1.77;0.95;;;17.70;64.20;;;;;;4976949;28;20043;-74
2022/09/26 13:58:17;;;;;;;2.08;0.70;;;17.70;63.90;;;;;;4973007;28;20616;-76
2022/09/26 14:00:51;;;;;;;2.67;0.80;;;17.70;63.10;;;;;;4970114;28;20038;-75
2022/09/26 14:03:22;;;;;;;2.20;0.60;;;17.70;63.40;;;;;;4973860;28;20034;-76